sensor_id;sensor_type;location;lat;lon;timestamp;temperature;humidity
780;DHT22;373;49.342;8.146;2023-03-04T00:00:24;1.80;1.00
780;DHT22;373;49.342;8.146;2023-03-04T00:02:52;1.90;1.00
780;DHT22;373;49.342;8.146;2023-03-04T00:05:19;1.90;1.00
780;DHT22;373;49.342;8.146;2023-03-04T00:07:46;1.80;99.90
780;DHT22;373;49.342;8.146;2023-03-04T00:10:13;1.80;99.90
780;DHT22;373;49.342;8.146;2023-03-04T00:12:40;1.70;1.00
780;DHT22;373;49.342;8.146;2023-03-04T00:15:08;1.70;1.00
780;DHT22;373;49.342;8.146;2023-03-04T00:17:35;1.70;1.00
780;DHT22;373;49.342;8.146;2023-03-04T00:20:05;1.70;1.00
780;DHT22;373;49.342;8.146;2023-03-04T00:22:32;1.60;1.00
780;DHT22;373;49.342;8.146;2023-03-04T00:24:59;1.60;1.00
780;DHT22;373;49.342;8.146;2023-03-04T00:27:26;1.60;1.00
780;DHT22;373;49.342;8.146;2023-03-04T00:29:53;1.60;1.00
780;DHT22;373;49.342;8.146;2023-03-04T00:32:20;1.60;1.00
780;DHT22;373;49.342;8.146;2023-03-04T00:34:47;1.50;1.00
780;DHT22;373;49.342;8.146;2023-03-04T00:37:15;1.50;1.00
780;DHT22;373;49.342;8.146;2023-03-04T00:39:42;1.50;1.00
780;DHT22;373;49.342;8.146;2023-03-04T00:42:09;1.60;1.00
780;DHT22;373;49.342;8.146;2023-03-04T00:44:37;1.60;1.00
780;DHT22;373;49.342;8.146;2023-03-04T00:47:04;1.50;1.00
780;DHT22;373;49.342;8.146;2023-03-04T00:49:31;1.60;1.00
780;DHT22;373;49.342;8.146;2023-03-04T00:51:59;1.80;99.90
780;DHT22;373;49.342;8.146;2023-03-04T00:54:27;1.60;99.90
780;DHT22;373;49.342;8.146;2023-03-04T00:56:54;1.60;1.00
780;DHT22;373;49.342;8.146;2023-03-04T00:59:21;1.50;1.00
780;DHT22;373;49.342;8.146;2023-03-04T01:01:48;1.70;1.00
780;DHT22;373;49.342;8.146;2023-03-04T01:04:16;1.50;1.00
780;DHT22;373;49.342;8.146;2023-03-04T01:06:43;1.40;1.00
780;DHT22;373;49.342;8.146;2023-03-04T01:09:11;1.40;1.00
780;DHT22;373;49.342;8.146;2023-03-04T01:11:39;1.40;1.00
780;DHT22;373;49.342;8.146;2023-03-04T01:14:06;1.30;1.00
780;DHT22;373;49.342;8.146;2023-03-04T01:16:34;1.30;1.00
780;DHT22;373;49.342;8.146;2023-03-04T01:19:01;1.50;1.00
780;DHT22;373;49.342;8.146;2023-03-04T01:21:29;1.40;1.00
780;DHT22;373;49.342;8.146;2023-03-04T01:23:56;1.40;1.00
780;DHT22;373;49.342;8.146;2023-03-04T01:26:23;1.30;1.00
780;DHT22;373;49.342;8.146;2023-03-04T01:28:51;1.20;1.00
780;DHT22;373;49.342;8.146;2023-03-04T01:31:18;1.20;1.00
780;DHT22;373;49.342;8.146;2023-03-04T01:33:45;1.20;1.00
780;DHT22;373;49.342;8.146;2023-03-04T01:36:12;1.10;1.00
780;DHT22;373;49.342;8.146;2023-03-04T01:38:39;1.10;1.00
780;DHT22;373;49.342;8.146;2023-03-04T01:41:07;1.10;1.00
780;DHT22;373;49.342;8.146;2023-03-04T01:43:35;1.10;1.00
780;DHT22;373;49.342;8.146;2023-03-04T01:46:05;1.20;1.00
780;DHT22;373;49.342;8.146;2023-03-04T01:48:35;1.10;1.00
780;DHT22;373;49.342;8.146;2023-03-04T01:51:03;1.10;1.00
780;DHT22;373;49.342;8.146;2023-03-04T01:53:31;1.10;1.00
780;DHT22;373;49.342;8.146;2023-03-04T01:56:02;1.10;1.00
780;DHT22;373;49.342;8.146;2023-03-04T01:58:35;1.10;1.00
780;DHT22;373;49.342;8.146;2023-03-04T02:01:04;1.00;1.00
780;DHT22;373;49.342;8.146;2023-03-04T02:03:31;1.10;1.00
780;DHT22;373;49.342;8.146;2023-03-04T02:05:58;1.00;1.00
780;DHT22;373;49.342;8.146;2023-03-04T02:08:25;1.00;1.00
780;DHT22;373;49.342;8.146;2023-03-04T02:10:53;1.10;1.00
780;DHT22;373;49.342;8.146;2023-03-04T02:13:21;1.20;1.00
780;DHT22;373;49.342;8.146;2023-03-04T02:15:48;1.10;1.00
780;DHT22;373;49.342;8.146;2023-03-04T02:18:18;1.10;1.00
780;DHT22;373;49.342;8.146;2023-03-04T02:20:53;0.90;1.00
780;DHT22;373;49.342;8.146;2023-03-04T02:23:27;0.90;1.00
780;DHT22;373;49.342;8.146;2023-03-04T02:26:12;0.90;1.00
780;DHT22;373;49.342;8.146;2023-03-04T02:28:40;0.90;1.00
780;DHT22;373;49.342;8.146;2023-03-04T02:31:16;0.70;1.00
780;DHT22;373;49.342;8.146;2023-03-04T02:33:46;0.70;1.00
780;DHT22;373;49.342;8.146;2023-03-04T02:36:13;0.70;1.00
780;DHT22;373;49.342;8.146;2023-03-04T02:38:40;0.60;1.00
780;DHT22;373;49.342;8.146;2023-03-04T02:41:12;0.50;1.00
780;DHT22;373;49.342;8.146;2023-03-04T02:43:42;0.60;1.00
780;DHT22;373;49.342;8.146;2023-03-04T02:46:11;0.60;1.00
780;DHT22;373;49.342;8.146;2023-03-04T02:48:39;0.60;1.00
780;DHT22;373;49.342;8.146;2023-03-04T02:51:06;0.60;1.00
780;DHT22;373;49.342;8.146;2023-03-04T02:53:33;0.60;1.00
780;DHT22;373;49.342;8.146;2023-03-04T02:56:00;0.60;1.00
780;DHT22;373;49.342;8.146;2023-03-04T02:58:32;0.60;1.00
780;DHT22;373;49.342;8.146;2023-03-04T03:00:59;0.60;1.00
780;DHT22;373;49.342;8.146;2023-03-04T03:03:27;0.70;1.00
780;DHT22;373;49.342;8.146;2023-03-04T03:05:55;0.60;1.00
780;DHT22;373;49.342;8.146;2023-03-04T03:08:22;0.70;1.00
780;DHT22;373;49.342;8.146;2023-03-04T03:10:49;0.80;1.00
780;DHT22;373;49.342;8.146;2023-03-04T03:13:16;0.70;1.00
780;DHT22;373;49.342;8.146;2023-03-04T03:15:45;0.70;1.00
780;DHT22;373;49.342;8.146;2023-03-04T03:18:14;0.70;1.00
780;DHT22;373;49.342;8.146;2023-03-04T03:20:41;0.70;1.00
780;DHT22;373;49.342;8.146;2023-03-04T03:23:08;0.70;1.00
780;DHT22;373;49.342;8.146;2023-03-04T03:25:35;0.70;1.00
780;DHT22;373;49.342;8.146;2023-03-04T03:28:05;0.70;1.00
780;DHT22;373;49.342;8.146;2023-03-04T03:30:32;0.70;1.00
780;DHT22;373;49.342;8.146;2023-03-04T03:33:00;0.70;1.00
780;DHT22;373;49.342;8.146;2023-03-04T03:35:28;0.70;1.00
780;DHT22;373;49.342;8.146;2023-03-04T03:37:55;0.70;1.00
780;DHT22;373;49.342;8.146;2023-03-04T03:40:22;0.70;1.00
780;DHT22;373;49.342;8.146;2023-03-04T03:42:49;0.60;1.00
780;DHT22;373;49.342;8.146;2023-03-04T03:45:16;0.70;1.00
780;DHT22;373;49.342;8.146;2023-03-04T03:47:43;0.70;1.00
780;DHT22;373;49.342;8.146;2023-03-04T03:50:11;0.70;1.00
780;DHT22;373;49.342;8.146;2023-03-04T03:52:39;0.60;1.00
780;DHT22;373;49.342;8.146;2023-03-04T03:55:06;0.50;1.00
780;DHT22;373;49.342;8.146;2023-03-04T03:57:33;0.50;1.00
780;DHT22;373;49.342;8.146;2023-03-04T04:00:00;0.60;1.00
780;DHT22;373;49.342;8.146;2023-03-04T04:02:38;0.60;1.00
780;DHT22;373;49.342;8.146;2023-03-04T04:05:06;0.60;1.00
780;DHT22;373;49.342;8.146;2023-03-04T04:07:36;0.50;1.00
780;DHT22;373;49.342;8.146;2023-03-04T04:10:03;0.50;1.00
780;DHT22;373;49.342;8.146;2023-03-04T04:12:31;0.40;1.00
780;DHT22;373;49.342;8.146;2023-03-04T04:15:03;0.50;1.00
780;DHT22;373;49.342;8.146;2023-03-04T04:17:30;0.50;1.00
780;DHT22;373;49.342;8.146;2023-03-04T04:19:57;0.40;1.00
780;DHT22;373;49.342;8.146;2023-03-04T04:22:24;0.40;1.00
780;DHT22;373;49.342;8.146;2023-03-04T04:24:52;0.30;1.00
780;DHT22;373;49.342;8.146;2023-03-04T04:27:19;0.30;1.00
780;DHT22;373;49.342;8.146;2023-03-04T04:29:47;0.40;1.00
780;DHT22;373;49.342;8.146;2023-03-04T04:32:14;0.40;1.00
780;DHT22;373;49.342;8.146;2023-03-04T04:34:41;0.30;1.00
780;DHT22;373;49.342;8.146;2023-03-04T04:37:08;0.30;1.00
780;DHT22;373;49.342;8.146;2023-03-04T04:39:35;0.30;1.00
780;DHT22;373;49.342;8.146;2023-03-04T04:42:04;0.30;1.00
780;DHT22;373;49.342;8.146;2023-03-04T04:44:31;0.20;1.00
780;DHT22;373;49.342;8.146;2023-03-04T04:46:58;0.30;1.00
780;DHT22;373;49.342;8.146;2023-03-04T04:49:25;0.30;1.00
780;DHT22;373;49.342;8.146;2023-03-04T04:51:52;0.30;1.00
780;DHT22;373;49.342;8.146;2023-03-04T04:54:19;0.30;1.00
780;DHT22;373;49.342;8.146;2023-03-04T04:56:46;0.40;1.00
780;DHT22;373;49.342;8.146;2023-03-04T04:59:14;0.40;1.00
780;DHT22;373;49.342;8.146;2023-03-04T05:01:41;0.40;1.00
780;DHT22;373;49.342;8.146;2023-03-04T05:04:09;0.40;1.00
780;DHT22;373;49.342;8.146;2023-03-04T05:06:36;0.40;1.00
780;DHT22;373;49.342;8.146;2023-03-04T05:09:03;0.30;1.00
780;DHT22;373;49.342;8.146;2023-03-04T05:11:30;0.30;1.00
780;DHT22;373;49.342;8.146;2023-03-04T05:13:57;0.40;1.00
780;DHT22;373;49.342;8.146;2023-03-04T05:16:26;0.30;1.00
780;DHT22;373;49.342;8.146;2023-03-04T05:18:53;0.20;1.00
780;DHT22;373;49.342;8.146;2023-03-04T05:21:20;0.20;1.00
780;DHT22;373;49.342;8.146;2023-03-04T05:23:47;0.20;1.00
780;DHT22;373;49.342;8.146;2023-03-04T05:26:16;0.20;1.00
780;DHT22;373;49.342;8.146;2023-03-04T05:28:44;0.10;1.00
780;DHT22;373;49.342;8.146;2023-03-04T05:31:11;0.10;1.00
780;DHT22;373;49.342;8.146;2023-03-04T05:33:40;0.10;1.00
780;DHT22;373;49.342;8.146;2023-03-04T05:36:07;0.00;1.00
780;DHT22;373;49.342;8.146;2023-03-04T05:38:34;0.10;1.00
780;DHT22;373;49.342;8.146;2023-03-04T05:41:04;0.10;1.00
780;DHT22;373;49.342;8.146;2023-03-04T05:43:32;0.20;1.00
780;DHT22;373;49.342;8.146;2023-03-04T05:46:01;0.20;1.00
780;DHT22;373;49.342;8.146;2023-03-04T05:48:28;0.20;1.00
780;DHT22;373;49.342;8.146;2023-03-04T05:50:58;0.20;1.00
780;DHT22;373;49.342;8.146;2023-03-04T05:53:27;0.30;1.00
780;DHT22;373;49.342;8.146;2023-03-04T05:55:54;0.40;1.00
780;DHT22;373;49.342;8.146;2023-03-04T05:58:22;0.30;1.00
780;DHT22;373;49.342;8.146;2023-03-04T06:00:49;0.40;1.00
780;DHT22;373;49.342;8.146;2023-03-04T06:03:16;0.40;1.00
780;DHT22;373;49.342;8.146;2023-03-04T06:05:44;0.40;1.00
780;DHT22;373;49.342;8.146;2023-03-04T06:08:13;0.40;1.00
780;DHT22;373;49.342;8.146;2023-03-04T06:10:40;0.40;1.00
780;DHT22;373;49.342;8.146;2023-03-04T06:13:08;0.40;1.00
780;DHT22;373;49.342;8.146;2023-03-04T06:15:35;0.40;1.00
780;DHT22;373;49.342;8.146;2023-03-04T06:18:03;0.30;1.00
780;DHT22;373;49.342;8.146;2023-03-04T06:20:30;0.40;1.00
780;DHT22;373;49.342;8.146;2023-03-04T06:22:57;0.40;1.00
780;DHT22;373;49.342;8.146;2023-03-04T06:25:25;0.40;1.00
780;DHT22;373;49.342;8.146;2023-03-04T06:27:52;0.40;1.00
780;DHT22;373;49.342;8.146;2023-03-04T06:30:20;0.50;1.00
780;DHT22;373;49.342;8.146;2023-03-04T06:32:47;0.40;1.00
780;DHT22;373;49.342;8.146;2023-03-04T06:35:15;0.60;1.00
780;DHT22;373;49.342;8.146;2023-03-04T06:37:42;0.60;1.00
780;DHT22;373;49.342;8.146;2023-03-04T06:40:10;0.60;1.00
780;DHT22;373;49.342;8.146;2023-03-04T06:42:40;0.70;1.00
780;DHT22;373;49.342;8.146;2023-03-04T06:45:08;0.70;1.00
780;DHT22;373;49.342;8.146;2023-03-04T06:47:35;0.80;1.00
780;DHT22;373;49.342;8.146;2023-03-04T06:50:04;0.90;1.00
780;DHT22;373;49.342;8.146;2023-03-04T06:52:31;0.90;1.00
780;DHT22;373;49.342;8.146;2023-03-04T06:54:58;1.10;1.00
780;DHT22;373;49.342;8.146;2023-03-04T06:57:25;1.10;1.00
780;DHT22;373;49.342;8.146;2023-03-04T06:59:53;1.20;99.90
780;DHT22;373;49.342;8.146;2023-03-04T07:02:20;1.30;1.00
780;DHT22;373;49.342;8.146;2023-03-04T07:04:48;1.50;99.90
780;DHT22;373;49.342;8.146;2023-03-04T07:07:15;1.50;99.90
780;DHT22;373;49.342;8.146;2023-03-04T07:09:42;1.60;1.00
780;DHT22;373;49.342;8.146;2023-03-04T07:12:09;1.60;99.90
780;DHT22;373;49.342;8.146;2023-03-04T07:14:36;1.50;1.00
780;DHT22;373;49.342;8.146;2023-03-04T07:17:04;1.60;99.90
780;DHT22;373;49.342;8.146;2023-03-04T07:19:31;1.70;99.90
780;DHT22;373;49.342;8.146;2023-03-04T07:21:58;1.80;1.00
780;DHT22;373;49.342;8.146;2023-03-04T07:24:25;1.70;99.90
780;DHT22;373;49.342;8.146;2023-03-04T07:26:52;1.80;1.00
780;DHT22;373;49.342;8.146;2023-03-04T07:29:20;2.00;99.90
780;DHT22;373;49.342;8.146;2023-03-04T07:31:47;2.20;1.00
780;DHT22;373;49.342;8.146;2023-03-04T07:34:15;2.30;99.90
780;DHT22;373;49.342;8.146;2023-03-04T07:36:44;2.40;1.00
780;DHT22;373;49.342;8.146;2023-03-04T07:39:11;2.40;99.90
780;DHT22;373;49.342;8.146;2023-03-04T07:41:39;2.60;99.90
780;DHT22;373;49.342;8.146;2023-03-04T07:44:07;2.80;99.90
780;DHT22;373;49.342;8.146;2023-03-04T07:46:35;2.90;1.00
780;DHT22;373;49.342;8.146;2023-03-04T07:49:02;3.10;99.90
780;DHT22;373;49.342;8.146;2023-03-04T07:51:30;2.90;99.90
780;DHT22;373;49.342;8.146;2023-03-04T07:53:59;3.00;99.90
780;DHT22;373;49.342;8.146;2023-03-04T07:56:28;3.30;99.90
780;DHT22;373;49.342;8.146;2023-03-04T07:58:55;3.40;1.00
780;DHT22;373;49.342;8.146;2023-03-04T08:01:24;3.40;1.00
780;DHT22;373;49.342;8.146;2023-03-04T08:03:51;3.40;1.00
780;DHT22;373;49.342;8.146;2023-03-04T08:06:19;3.40;1.00
780;DHT22;373;49.342;8.146;2023-03-04T08:08:49;3.40;1.00
780;DHT22;373;49.342;8.146;2023-03-04T08:11:19;3.50;1.00
780;DHT22;373;49.342;8.146;2023-03-04T08:13:47;3.50;1.00
780;DHT22;373;49.342;8.146;2023-03-04T08:16:14;3.50;1.00
780;DHT22;373;49.342;8.146;2023-03-04T08:18:42;3.50;1.00
780;DHT22;373;49.342;8.146;2023-03-04T08:21:10;3.60;1.00
780;DHT22;373;49.342;8.146;2023-03-04T08:23:38;3.60;99.90
780;DHT22;373;49.342;8.146;2023-03-04T08:26:10;3.60;99.90
780;DHT22;373;49.342;8.146;2023-03-04T08:28:37;3.70;99.90
780;DHT22;373;49.342;8.146;2023-03-04T08:31:04;3.70;99.90
780;DHT22;373;49.342;8.146;2023-03-04T08:33:32;3.70;99.90
780;DHT22;373;49.342;8.146;2023-03-04T08:35:59;3.70;99.90
780;DHT22;373;49.342;8.146;2023-03-04T08:38:26;3.80;99.90
780;DHT22;373;49.342;8.146;2023-03-04T08:40:54;3.90;99.90
780;DHT22;373;49.342;8.146;2023-03-04T08:43:24;4.10;99.90
780;DHT22;373;49.342;8.146;2023-03-04T08:45:52;4.10;99.90
780;DHT22;373;49.342;8.146;2023-03-04T08:48:20;4.10;99.90
780;DHT22;373;49.342;8.146;2023-03-04T08:50:48;4.10;99.90
780;DHT22;373;49.342;8.146;2023-03-04T08:53:17;4.30;99.90
780;DHT22;373;49.342;8.146;2023-03-04T08:55:44;4.40;93.90
780;DHT22;373;49.342;8.146;2023-03-04T08:58:12;4.40;64.80
780;DHT22;373;49.342;8.146;2023-03-04T09:00:43;4.40;43.70
780;DHT22;373;49.342;8.146;2023-03-04T09:03:15;4.30;28.60
780;DHT22;373;49.342;8.146;2023-03-04T09:05:44;4.30;14.70
780;DHT22;373;49.342;8.146;2023-03-04T09:08:11;4.30;3.40
780;DHT22;373;49.342;8.146;2023-03-04T09:10:39;4.40;2.10
780;DHT22;373;49.342;8.146;2023-03-04T09:13:06;4.40;1.00
780;DHT22;373;49.342;8.146;2023-03-04T09:15:36;4.40;1.00
780;DHT22;373;49.342;8.146;2023-03-04T09:18:05;4.40;1.00
780;DHT22;373;49.342;8.146;2023-03-04T09:20:32;4.50;1.00
780;DHT22;373;49.342;8.146;2023-03-04T09:22:59;4.70;1.00
780;DHT22;373;49.342;8.146;2023-03-04T09:25:27;4.80;1.00
780;DHT22;373;49.342;8.146;2023-03-04T09:27:54;4.80;1.00
780;DHT22;373;49.342;8.146;2023-03-04T09:30:21;5.00;1.00
780;DHT22;373;49.342;8.146;2023-03-04T09:32:48;4.90;1.00
780;DHT22;373;49.342;8.146;2023-03-04T09:35:17;4.90;1.00
780;DHT22;373;49.342;8.146;2023-03-04T09:37:49;4.70;1.00
780;DHT22;373;49.342;8.146;2023-03-04T09:40:19;4.70;1.00
780;DHT22;373;49.342;8.146;2023-03-04T09:42:50;4.70;1.00
780;DHT22;373;49.342;8.146;2023-03-04T09:45:20;4.80;1.00
780;DHT22;373;49.342;8.146;2023-03-04T09:47:49;4.80;1.00
780;DHT22;373;49.342;8.146;2023-03-04T09:50:20;4.90;1.00
780;DHT22;373;49.342;8.146;2023-03-04T09:52:59;4.80;1.00
780;DHT22;373;49.342;8.146;2023-03-04T09:55:33;4.80;1.00
780;DHT22;373;49.342;8.146;2023-03-04T09:58:06;4.90;1.00
780;DHT22;373;49.342;8.146;2023-03-04T10:00:42;5.00;1.00
780;DHT22;373;49.342;8.146;2023-03-04T10:03:14;4.80;1.00
780;DHT22;373;49.342;8.146;2023-03-04T10:05:49;4.90;1.00
780;DHT22;373;49.342;8.146;2023-03-04T10:08:26;4.90;1.00
780;DHT22;373;49.342;8.146;2023-03-04T10:10:58;4.90;1.00
780;DHT22;373;49.342;8.146;2023-03-04T10:13:32;5.00;1.00
780;DHT22;373;49.342;8.146;2023-03-04T10:16:03;5.00;1.00
780;DHT22;373;49.342;8.146;2023-03-04T10:18:36;5.00;1.00
780;DHT22;373;49.342;8.146;2023-03-04T10:21:13;5.30;1.00
780;DHT22;373;49.342;8.146;2023-03-04T10:23:42;5.70;1.00
780;DHT22;373;49.342;8.146;2023-03-04T10:26:12;5.70;1.00
780;DHT22;373;49.342;8.146;2023-03-04T10:28:40;5.70;1.00
780;DHT22;373;49.342;8.146;2023-03-04T10:31:13;5.80;1.00
780;DHT22;373;49.342;8.146;2023-03-04T10:33:42;5.40;1.00
780;DHT22;373;49.342;8.146;2023-03-04T10:36:26;5.30;1.00
780;DHT22;373;49.342;8.146;2023-03-04T10:39:00;5.20;1.00
780;DHT22;373;49.342;8.146;2023-03-04T10:41:29;5.30;1.00
780;DHT22;373;49.342;8.146;2023-03-04T10:44:01;5.60;1.00
780;DHT22;373;49.342;8.146;2023-03-04T10:46:29;5.60;1.00
780;DHT22;373;49.342;8.146;2023-03-04T10:48:57;5.60;1.00
780;DHT22;373;49.342;8.146;2023-03-04T10:51:30;5.40;1.00
780;DHT22;373;49.342;8.146;2023-03-04T10:54:07;5.50;1.00
780;DHT22;373;49.342;8.146;2023-03-04T10:56:38;5.80;1.00
780;DHT22;373;49.342;8.146;2023-03-04T10:59:33;5.80;99.90
780;DHT22;373;49.342;8.146;2023-03-04T11:02:12;5.60;99.90
780;DHT22;373;49.342;8.146;2023-03-04T11:04:40;5.80;1.00
780;DHT22;373;49.342;8.146;2023-03-04T11:07:09;5.90;99.90
780;DHT22;373;49.342;8.146;2023-03-04T11:09:37;6.00;99.90
780;DHT22;373;49.342;8.146;2023-03-04T11:12:10;6.10;99.90
780;DHT22;373;49.342;8.146;2023-03-04T11:14:40;6.00;99.90
780;DHT22;373;49.342;8.146;2023-03-04T11:17:19;5.90;99.90
780;DHT22;373;49.342;8.146;2023-03-04T11:19:50;5.80;99.90
780;DHT22;373;49.342;8.146;2023-03-04T11:22:21;5.90;99.90
780;DHT22;373;49.342;8.146;2023-03-04T11:24:55;6.00;99.90
780;DHT22;373;49.342;8.146;2023-03-04T11:27:29;5.90;99.90
780;DHT22;373;49.342;8.146;2023-03-04T11:30:08;6.10;99.90
780;DHT22;373;49.342;8.146;2023-03-04T11:32:40;6.00;99.90
780;DHT22;373;49.342;8.146;2023-03-04T11:35:17;6.10;99.90
780;DHT22;373;49.342;8.146;2023-03-04T11:37:53;6.20;99.90
780;DHT22;373;49.342;8.146;2023-03-04T11:40:29;6.00;99.90
780;DHT22;373;49.342;8.146;2023-03-04T11:43:02;5.70;99.90
780;DHT22;373;49.342;8.146;2023-03-04T11:45:47;6.00;99.90
780;DHT22;373;49.342;8.146;2023-03-04T11:48:21;6.20;99.90
780;DHT22;373;49.342;8.146;2023-03-04T11:50:53;6.40;99.90
780;DHT22;373;49.342;8.146;2023-03-04T11:53:32;6.70;99.90
780;DHT22;373;49.342;8.146;2023-03-04T11:56:18;6.90;99.90
780;DHT22;373;49.342;8.146;2023-03-04T12:01:46;6.90;99.90
780;DHT22;373;49.342;8.146;2023-03-04T12:07:47;6.50;99.90
780;DHT22;373;49.342;8.146;2023-03-04T12:10:24;6.40;99.90
780;DHT22;373;49.342;8.146;2023-03-04T12:13:24;6.30;99.90
780;DHT22;373;49.342;8.146;2023-03-04T12:16:03;6.20;99.90
780;DHT22;373;49.342;8.146;2023-03-04T12:18:42;6.20;99.90
780;DHT22;373;49.342;8.146;2023-03-04T12:21:20;6.20;99.90
780;DHT22;373;49.342;8.146;2023-03-04T12:24:10;6.10;99.90
780;DHT22;373;49.342;8.146;2023-03-04T12:26:43;6.00;99.90
780;DHT22;373;49.342;8.146;2023-03-04T12:29:20;6.10;99.90
780;DHT22;373;49.342;8.146;2023-03-04T12:31:55;6.10;99.90
780;DHT22;373;49.342;8.146;2023-03-04T12:34:36;6.10;99.90
780;DHT22;373;49.342;8.146;2023-03-04T12:37:26;6.20;99.90
780;DHT22;373;49.342;8.146;2023-03-04T12:40:11;6.30;99.90
780;DHT22;373;49.342;8.146;2023-03-04T12:42:54;6.40;99.90
780;DHT22;373;49.342;8.146;2023-03-04T12:45:26;6.40;99.90
780;DHT22;373;49.342;8.146;2023-03-04T12:48:03;6.60;99.90
780;DHT22;373;49.342;8.146;2023-03-04T12:50:38;6.80;99.90
780;DHT22;373;49.342;8.146;2023-03-04T12:53:20;6.80;99.90
780;DHT22;373;49.342;8.146;2023-03-04T12:55:50;7.10;99.90
780;DHT22;373;49.342;8.146;2023-03-04T12:58:23;7.30;99.90
780;DHT22;373;49.342;8.146;2023-03-04T13:00:56;7.20;99.90
780;DHT22;373;49.342;8.146;2023-03-04T13:03:34;7.20;99.90
780;DHT22;373;49.342;8.146;2023-03-04T13:06:18;7.20;99.90
780;DHT22;373;49.342;8.146;2023-03-04T13:08:55;7.20;99.90
780;DHT22;373;49.342;8.146;2023-03-04T13:11:41;7.30;99.90
780;DHT22;373;49.342;8.146;2023-03-04T13:14:25;7.70;99.90
780;DHT22;373;49.342;8.146;2023-03-04T13:16:53;7.80;99.90
780;DHT22;373;49.342;8.146;2023-03-04T13:19:50;7.70;99.90
780;DHT22;373;49.342;8.146;2023-03-04T13:22:33;7.80;99.90
780;DHT22;373;49.342;8.146;2023-03-04T13:28:21;7.80;99.90
780;DHT22;373;49.342;8.146;2023-03-04T13:31:15;7.60;99.90
780;DHT22;373;49.342;8.146;2023-03-04T13:33:52;7.40;99.90
780;DHT22;373;49.342;8.146;2023-03-04T13:39:28;7.50;99.90
780;DHT22;373;49.342;8.146;2023-03-04T13:41:56;7.50;99.90
780;DHT22;373;49.342;8.146;2023-03-04T13:47:42;7.50;99.90
780;DHT22;373;49.342;8.146;2023-03-04T13:50:28;7.50;99.90
780;DHT22;373;49.342;8.146;2023-03-04T13:52:59;7.40;99.90
780;DHT22;373;49.342;8.146;2023-03-04T13:55:36;7.40;99.90
780;DHT22;373;49.342;8.146;2023-03-04T13:58:15;7.20;99.90
780;DHT22;373;49.342;8.146;2023-03-04T14:00:47;7.00;99.90
780;DHT22;373;49.342;8.146;2023-03-04T14:03:21;6.80;99.90
780;DHT22;373;49.342;8.146;2023-03-04T14:06:17;6.80;99.90
780;DHT22;373;49.342;8.146;2023-03-04T14:08:45;6.80;99.90
780;DHT22;373;49.342;8.146;2023-03-04T14:11:14;6.70;99.90
780;DHT22;373;49.342;8.146;2023-03-04T14:13:41;6.70;99.90
780;DHT22;373;49.342;8.146;2023-03-04T14:16:09;6.70;99.90
780;DHT22;373;49.342;8.146;2023-03-04T14:18:38;6.90;99.90
780;DHT22;373;49.342;8.146;2023-03-04T14:21:06;7.20;99.90
780;DHT22;373;49.342;8.146;2023-03-04T14:23:34;7.30;99.90
780;DHT22;373;49.342;8.146;2023-03-04T14:26:06;7.30;99.90
780;DHT22;373;49.342;8.146;2023-03-04T14:28:42;7.40;99.90
780;DHT22;373;49.342;8.146;2023-03-04T14:31:18;7.40;99.90
780;DHT22;373;49.342;8.146;2023-03-04T14:33:50;7.40;99.90
780;DHT22;373;49.342;8.146;2023-03-04T14:36:21;7.40;99.90
780;DHT22;373;49.342;8.146;2023-03-04T14:38:53;7.40;99.90
780;DHT22;373;49.342;8.146;2023-03-04T14:41:24;7.30;99.90
780;DHT22;373;49.342;8.146;2023-03-04T14:43:58;7.20;99.90
780;DHT22;373;49.342;8.146;2023-03-04T14:46:33;7.20;99.90
780;DHT22;373;49.342;8.146;2023-03-04T14:49:03;7.20;99.90
780;DHT22;373;49.342;8.146;2023-03-04T14:51:42;7.20;99.90
780;DHT22;373;49.342;8.146;2023-03-04T14:54:32;7.10;99.90
780;DHT22;373;49.342;8.146;2023-03-04T14:57:00;6.90;99.90
780;DHT22;373;49.342;8.146;2023-03-04T14:59:32;7.00;99.90
780;DHT22;373;49.342;8.146;2023-03-04T15:02:23;7.10;99.90
780;DHT22;373;49.342;8.146;2023-03-04T15:04:59;7.20;99.90
780;DHT22;373;49.342;8.146;2023-03-04T15:07:33;7.40;99.90
780;DHT22;373;49.342;8.146;2023-03-04T15:10:02;7.40;99.90
780;DHT22;373;49.342;8.146;2023-03-04T15:12:32;7.30;99.90
780;DHT22;373;49.342;8.146;2023-03-04T15:15:01;7.20;99.90
780;DHT22;373;49.342;8.146;2023-03-04T15:17:32;7.20;99.90
780;DHT22;373;49.342;8.146;2023-03-04T15:20:20;7.20;99.90
780;DHT22;373;49.342;8.146;2023-03-04T15:23:00;7.00;99.90
780;DHT22;373;49.342;8.146;2023-03-04T15:25:28;7.00;99.90
780;DHT22;373;49.342;8.146;2023-03-04T15:27:56;7.00;99.90
780;DHT22;373;49.342;8.146;2023-03-04T15:30:26;6.90;99.90
780;DHT22;373;49.342;8.146;2023-03-04T15:32:54;6.80;99.90
780;DHT22;373;49.342;8.146;2023-03-04T15:35:23;7.00;99.90
780;DHT22;373;49.342;8.146;2023-03-04T15:37:51;7.00;99.90
780;DHT22;373;49.342;8.146;2023-03-04T15:40:27;6.90;99.90
780;DHT22;373;49.342;8.146;2023-03-04T15:42:56;6.90;99.90
780;DHT22;373;49.342;8.146;2023-03-04T15:45:26;6.90;99.90
780;DHT22;373;49.342;8.146;2023-03-04T15:47:54;6.80;99.90
780;DHT22;373;49.342;8.146;2023-03-04T15:50:26;6.70;99.90
780;DHT22;373;49.342;8.146;2023-03-04T15:52:56;6.60;99.90
780;DHT22;373;49.342;8.146;2023-03-04T15:55:27;6.50;99.90
780;DHT22;373;49.342;8.146;2023-03-04T15:57:56;6.50;99.90
780;DHT22;373;49.342;8.146;2023-03-04T16:00:25;6.50;99.90
780;DHT22;373;49.342;8.146;2023-03-04T16:02:52;6.60;99.90
780;DHT22;373;49.342;8.146;2023-03-04T16:05:19;6.70;99.90
780;DHT22;373;49.342;8.146;2023-03-04T16:07:49;6.70;99.90
780;DHT22;373;49.342;8.146;2023-03-04T16:10:20;6.60;99.90
780;DHT22;373;49.342;8.146;2023-03-04T16:12:48;6.70;99.90
780;DHT22;373;49.342;8.146;2023-03-04T16:15:17;6.80;99.90
780;DHT22;373;49.342;8.146;2023-03-04T16:17:45;6.80;99.90
780;DHT22;373;49.342;8.146;2023-03-04T16:20:14;7.00;99.90
780;DHT22;373;49.342;8.146;2023-03-04T16:22:42;7.00;99.90
780;DHT22;373;49.342;8.146;2023-03-04T16:25:14;6.80;99.90
780;DHT22;373;49.342;8.146;2023-03-04T16:27:42;6.70;99.90
780;DHT22;373;49.342;8.146;2023-03-04T16:30:13;6.80;99.90
780;DHT22;373;49.342;8.146;2023-03-04T16:32:41;6.70;99.90
780;DHT22;373;49.342;8.146;2023-03-04T16:35:08;6.70;99.90
780;DHT22;373;49.342;8.146;2023-03-04T16:37:36;6.70;99.90
780;DHT22;373;49.342;8.146;2023-03-04T16:40:04;6.70;99.90
780;DHT22;373;49.342;8.146;2023-03-04T16:42:32;6.60;99.90
780;DHT22;373;49.342;8.146;2023-03-04T16:45:00;6.60;99.90
780;DHT22;373;49.342;8.146;2023-03-04T16:47:27;6.50;99.90
780;DHT22;373;49.342;8.146;2023-03-04T16:49:54;6.40;99.90
780;DHT22;373;49.342;8.146;2023-03-04T16:52:25;6.50;99.90
780;DHT22;373;49.342;8.146;2023-03-04T16:54:52;6.60;99.90
780;DHT22;373;49.342;8.146;2023-03-04T16:57:19;6.50;99.90
780;DHT22;373;49.342;8.146;2023-03-04T16:59:48;6.60;99.90
780;DHT22;373;49.342;8.146;2023-03-04T17:02:18;6.60;99.90
780;DHT22;373;49.342;8.146;2023-03-04T17:04:47;6.60;99.90
780;DHT22;373;49.342;8.146;2023-03-04T17:07:14;6.50;99.90
780;DHT22;373;49.342;8.146;2023-03-04T17:09:42;6.50;99.90
780;DHT22;373;49.342;8.146;2023-03-04T17:12:10;6.70;99.90
780;DHT22;373;49.342;8.146;2023-03-04T17:14:38;6.80;99.90
780;DHT22;373;49.342;8.146;2023-03-04T17:17:07;6.70;99.90
780;DHT22;373;49.342;8.146;2023-03-04T17:19:34;6.70;99.90
780;DHT22;373;49.342;8.146;2023-03-04T17:22:01;6.80;99.90
780;DHT22;373;49.342;8.146;2023-03-04T17:24:29;6.60;99.90
780;DHT22;373;49.342;8.146;2023-03-04T17:26:56;6.60;99.90
780;DHT22;373;49.342;8.146;2023-03-04T17:29:23;6.60;99.90
780;DHT22;373;49.342;8.146;2023-03-04T17:31:51;6.60;99.90
780;DHT22;373;49.342;8.146;2023-03-04T17:34:19;6.50;99.90
780;DHT22;373;49.342;8.146;2023-03-04T17:36:46;6.60;99.90